Time;durP1;ratioP1;P1;durP2;ratioP2;P2;SDS_P1;SDS_P2;PMS_P1;PMS_P2;Temp;Humidity;BMP_temperature;BMP_pressure;BME280_temperature;BME280_humidity;BME280_pressure;Samples;Min_cycle;Max_cycle;Signal;HPM_P1;HPM_P2
2023/04/19 00:00:40;;;;;;;4.45;2.45;;;8.90;99.90;;;;;;5078153;28;20391;-76
2023/04/19 00:03:07;;;;;;;5.30;2.30;;;9.00;99.90;;;;;;5078035;28;20016;-75
2023/04/19 00:05:32;;;;;;;5.45;2.80;;;9.00;99.90;;;;;;5078409;28;20055;-75
2023/04/19 00:07:58;;;;;;;4.97;2.55;;;9.00;99.90;;;;;;5096560;28;20028;-76
2023/04/19 00:10:25;;;;;;;6.55;2.53;;;9.00;99.90;;;;;;5096181;28;20081;-76
2023/04/19 00:12:51;;;;;;;5.38;2.60;;;9.60;99.90;;;;;;5077841;28;20482;-75
2023/04/19 00:15:17;;;;;;;8.40;2.70;;;8.90;99.90;;;;;;5096438;28;20074;-75
2023/04/19 00:17:42;;;;;;;8.68;3.10;;;8.90;99.90;;;;;;5095781;28;20107;-76
2023/04/19 00:20:09;;;;;;;6.40;3.40;;;8.90;99.90;;;;;;5078002;28;20115;-76
2023/04/19 00:22:35;;;;;;;5.20;2.53;;;8.90;99.90;;;;;;5077590;28;20442;-75
2023/04/19 00:25:01;;;;;;;7.57;3.42;;;;;;;;;;5077225;28;20043;-75
2023/04/19 00:27:27;;;;;;;6.43;3.05;;;8.90;99.90;;;;;;5077491;28;20503;-75
2023/04/19 00:29:52;;;;;;;6.32;2.65;;;8.80;99.90;;;;;;5077666;28;20020;-75
2023/04/19 00:32:18;;;;;;;6.57;2.97;;;8.80;99.90;;;;;;5095619;28;20024;-74
2023/04/19 00:34:44;;;;;;;7.80;2.70;;;8.90;99.90;;;;;;5094980;28;20031;-74
2023/04/19 00:37:10;;;;;;;5.93;3.10;;;8.80;99.90;;;;;;5077218;28;20073;-74
2023/04/19 00:39:36;;;;;;;10.88;3.58;;;8.80;99.90;;;;;;5077125;28;20551;-75
2023/04/19 00:42:02;;;;;;;7.35;2.95;;;8.80;99.90;;;;;;5095531;28;20056;-75
2023/04/19 00:44:27;;;;;;;7.80;2.83;;;8.80;99.90;;;;;;5077205;28;20027;-75
2023/04/19 00:46:54;;;;;;;6.43;3.00;;;8.70;99.90;;;;;;5077021;28;20032;-75
2023/04/19 00:49:22;;;;;;;9.02;3.90;;;8.70;99.90;;;;;;5077273;28;20020;-75
2023/04/19 00:51:49;;;;;;;7.25;3.85;;;8.70;99.90;;;;;;5095586;28;20063;-75
2023/04/19 00:54:15;;;;;;;7.03;2.80;;;9.50;99.90;;;;;;5094993;28;20038;-75
2023/04/19 00:56:44;;;;;;;7.95;3.03;;;8.60;99.90;;;;;;5076656;28;20116;-75
2023/04/19 00:59:10;;;;;;;;;;;8.60;99.90;;;;;;5096020;28;20019;-75
2023/04/19 01:01:37;;;;;;;7.80;2.72;;;8.50;99.90;;;;;;5095671;28;19926;-75
2023/04/19 01:04:03;;;;;;;9.25;3.55;;;8.50;99.90;;;;;;5095047;28;20028;-75
2023/04/19 01:06:29;;;;;;;6.00;2.92;;;8.50;99.90;;;;;;5094950;28;20032;-75
2023/04/19 01:08:55;;;;;;;7.45;3.33;;;8.50;99.90;;;;;;5077112;28;20141;-75
2023/04/19 01:11:24;;;;;;;8.50;3.72;;;8.50;99.90;;;;;;5094958;28;20503;-77
2023/04/19 01:13:50;;;;;;;6.22;3.25;;;8.40;99.90;;;;;;5076958;28;20105;-75
2023/04/19 01:16:16;;;;;;;7.43;3.53;;;8.40;99.90;;;;;;5076474;28;20077;-75
2023/04/19 01:18:42;;;;;;;16.73;4.40;;;8.40;99.90;;;;;;5094606;28;20020;-76
2023/04/19 01:21:08;;;;;;;13.27;4.10;;;10.40;99.90;;;;;;5076467;28;20069;-76
2023/04/19 01:23:34;;;;;;;8.82;3.45;;;8.40;99.90;;;;;;5094403;28;20027;-76
2023/04/19 01:26:03;;;;;;;6.20;3.78;;;8.30;99.90;;;;;;5076695;28;20017;-76
2023/04/19 01:28:29;;;;;;;8.57;3.53;;;8.30;99.90;;;;;;5076617;28;20030;-76
2023/04/19 01:30:54;;;;;;;8.98;4.10;;;8.30;99.90;;;;;;5076083;28;20118;-76
2023/04/19 01:33:21;;;;;;;10.82;4.15;;;8.30;99.90;;;;;;5094348;28;20035;-76
2023/04/19 01:35:47;;;;;;;11.85;3.95;;;8.30;99.90;;;;;;5077302;28;20031;-76
2023/04/19 01:38:14;;;;;;;8.95;4.18;;;8.30;99.90;;;;;;5094373;28;20016;-75
2023/04/19 01:40:39;;;;;;;9.07;4.00;;;8.30;99.90;;;;;;5076438;28;20111;-74
2023/04/19 01:43:06;;;;;;;11.25;4.45;;;8.30;99.90;;;;;;5076454;28;20105;-74
2023/04/19 01:45:32;;;;;;;8.40;3.83;;;8.30;99.90;;;;;;5076491;28;20107;-75
2023/04/19 01:48:00;;;;;;;10.20;4.53;;;8.30;99.90;;;;;;5094407;28;20103;-75
2023/04/19 01:50:26;;;;;;;8.02;3.92;;;8.30;99.90;;;;;;5094468;28;20016;-75
2023/04/19 01:52:51;;;;;;;8.13;3.60;;;8.40;99.90;;;;;;5076716;28;20116;-75
2023/04/19 01:55:17;;;;;;;10.68;3.72;;;8.40;99.90;;;;;;5094870;28;20036;-75
2023/04/19 01:57:43;;;;;;;8.13;3.55;;;8.50;99.90;;;;;;5076668;28;20495;-75
2023/04/19 02:00:10;;;;;;;6.57;3.42;;;8.50;99.90;;;;;;5094565;28;20024;-75
2023/04/19 02:02:37;;;;;;;9.93;4.25;;;8.50;99.90;;;;;;5076210;28;20542;-76
2023/04/19 02:05:04;;;;;;;9.35;3.60;;;8.60;99.90;;;;;;5076618;28;20023;-75
2023/04/19 02:07:30;;;;;;;6.85;3.97;;;8.60;99.90;;;;;;5076449;28;20175;-75
2023/04/19 02:09:58;;;;;;;9.48;4.40;;;8.60;99.90;;;;;;5076434;28;20079;-75
2023/04/19 02:12:27;;;;;;;7.57;3.90;;;8.70;99.90;;;;;;5076397;28;20394;-75
2023/04/19 02:14:52;;;;;;;;;;;9.70;99.90;;;;;;5094846;28;20023;-75
2023/04/19 02:17:18;;;;;;;8.35;3.88;;;8.80;99.90;;;;;;5076049;28;19908;-75
2023/04/19 02:19:44;;;;;;;10.68;4.35;;;8.80;99.90;;;;;;5094590;28;20043;-75
2023/04/19 02:22:09;;;;;;;9.15;5.03;;;8.80;99.90;;;;;;5075950;28;20043;-75
2023/04/19 02:24:35;;;;;;;8.60;4.00;;;8.80;99.90;;;;;;5075826;28;20141;-75
2023/04/19 02:27:01;;;;;;;9.55;3.80;;;8.80;99.90;;;;;;5094053;28;20024;-75
2023/04/19 02:29:26;;;;;;;7.13;3.38;;;8.90;99.90;;;;;;5076536;28;20024;-75
2023/04/19 02:31:52;;;;;;;9.10;3.50;;;8.90;99.90;;;;;;5076347;28;20376;-76
2023/04/19 02:34:17;;;;;;;8.82;4.28;;;9.10;99.90;;;;;;5094300;28;20108;-76
2023/04/19 02:36:43;;;;;;;10.38;4.10;;;9.00;99.90;;;;;;5093630;28;20028;-76
2023/04/19 02:39:09;;;;;;;7.78;4.07;;;9.00;99.90;;;;;;5076183;28;20103;-75
2023/04/19 02:41:35;;;;;;;12.18;3.50;;;;;;;;;;5075893;28;20020;-75
2023/04/19 02:44:00;;;;;;;8.35;3.85;;;9.10;99.90;;;;;;5079195;28;20024;-76
2023/04/19 02:46:26;;;;;;;6.93;3.97;;;9.10;99.90;;;;;;5096788;28;20077;-76
2023/04/19 02:48:52;;;;;;;7.78;3.78;;;;;;;;;;5079482;28;20502;-76
2023/04/19 02:51:18;;;;;;;7.22;3.65;;;9.10;99.90;;;;;;5097614;28;20031;-76
2023/04/19 02:53:43;;;;;;;9.05;3.75;;;9.20;99.90;;;;;;5096876;28;20496;-76
2023/04/19 02:56:09;;;;;;;6.50;3.20;;;9.20;99.90;;;;;;5079810;28;20020;-76
2023/04/19 02:58:35;;;;;;;9.95;3.63;;;9.20;99.90;;;;;;5079234;28;20028;-76
2023/04/19 03:01:00;;;;;;;12.23;4.90;;;9.20;99.90;;;;;;5079156;28;20128;-75
2023/04/19 03:03:26;;;;;;;6.57;4.00;;;9.20;99.90;;;;;;5097019;28;20388;-76
2023/04/19 03:05:51;;;;;;;8.55;3.92;;;11.40;99.90;;;;;;5097479;28;20020;-76
2023/04/19 03:08:17;;;;;;;10.07;3.78;;;9.30;99.90;;;;;;5096731;28;20475;-76
2023/04/19 03:10:43;;;;;;;7.72;3.80;;;9.30;99.90;;;;;;5078784;28;20046;-76
2023/04/19 03:13:08;;;;;;;7.00;3.42;;;9.30;99.90;;;;;;5096814;28;20313;-76
2023/04/19 03:15:34;;;;;;;9.75;3.50;;;9.30;99.90;;;;;;5097087;28;20016;-75
2023/04/19 03:18:00;;;;;;;9.05;3.92;;;9.30;99.90;;;;;;5078933;28;20028;-75
2023/04/19 03:20:25;;;;;;;9.13;3.63;;;10.30;99.90;;;;;;5097136;28;20016;-76
2023/04/19 03:22:51;;;;;;;7.57;3.45;;;9.90;99.90;;;;;;5097180;28;20100;-76
2023/04/19 03:25:16;;;;;;;4.72;2.80;;;9.40;99.90;;;;;;5097096;28;20020;-76
2023/04/19 03:27:44;;;;;;;9.02;4.68;;;9.40;99.90;;;;;;5096874;28;20032;-76
2023/04/19 03:30:11;;;;;;;8.23;3.72;;;9.40;99.90;;;;;;5096881;28;20149;-76
2023/04/19 03:32:36;;;;;;;8.15;3.88;;;9.40;99.90;;;;;;5078757;28;20035;-76
2023/04/19 03:35:02;;;;;;;9.23;3.33;;;9.40;99.90;;;;;;5096469;28;20024;-76
2023/04/19 03:37:28;;;;;;;6.97;2.70;;;9.40;99.90;;;;;;5078138;28;20483;-76
2023/04/19 03:39:53;;;;;;;7.20;3.60;;;9.40;99.90;;;;;;5096631;28;20020;-76
2023/04/19 03:42:19;;;;;;;7.43;3.13;;;9.50;99.90;;;;;;5096715;28;20459;-76
2023/04/19 03:44:45;;;;;;;7.05;3.08;;;9.50;99.90;;;;;;5078368;28;20024;-76
2023/04/19 03:47:10;;;;;;;7.75;2.92;;;9.50;99.90;;;;;;5096425;28;20020;-76
2023/04/19 03:49:36;;;;;;;9.50;3.63;;;9.50;99.90;;;;;;5079142;28;20028;-75
2023/04/19 03:52:01;;;;;;;8.55;3.08;;;9.50;99.90;;;;;;5078179;28;20118;-76
2023/04/19 03:54:27;;;;;;;7.55;3.28;;;9.50;99.90;;;;;;5077638;28;20031;-76
2023/04/19 03:56:52;;;;;;;9.70;3.95;;;9.50;99.90;;;;;;5078063;28;20073;-76
2023/04/19 03:59:18;;;;;;;6.30;2.63;;;11.10;99.90;;;;;;5077961;28;20024;-76
2023/04/19 04:01:43;;;;;;;9.55;3.45;;;10.40;99.90;;;;;;5096446;28;20020;-76
2023/04/19 04:04:10;;;;;;;7.97;2.55;;;9.60;99.90;;;;;;5078068;28;20016;-76
2023/04/19 04:06:36;;;;;;;8.52;3.22;;;9.50;99.90;;;;;;5077982;28;20119;-76
2023/04/19 04:09:02;;;;;;;6.97;2.90;;;9.50;99.90;;;;;;5096215;28;20063;-76
2023/04/19 04:11:28;;;;;;;8.90;3.42;;;9.50;99.90;;;;;;5078375;28;20399;-76
2023/04/19 04:13:55;;;;;;;6.40;2.92;;;9.50;99.90;;;;;;5095935;28;20031;-76
2023/04/19 04:16:21;;;;;;;7.60;2.55;;;10.70;99.90;;;;;;5096489;28;20028;-76
2023/04/19 04:18:46;;;;;;;7.03;2.83;;;9.40;99.90;;;;;;5096116;28;20016;-76
2023/04/19 04:21:12;;;;;;;5.72;2.85;;;9.40;99.90;;;;;;5078115;28;20018;-76
2023/04/19 04:23:38;;;;;;;4.70;2.33;;;9.40;99.90;;;;;;5077510;28;20019;-76
2023/04/19 04:26:05;;;;;;;6.28;2.80;;;9.30;99.90;;;;;;5077595;28;20481;-76
2023/04/19 04:28:31;;;;;;;7.95;2.83;;;9.20;99.90;;;;;;5077778;28;20403;-76
2023/04/19 04:30:58;;;;;;;4.97;2.47;;;9.20;99.90;;;;;;5077769;28;20020;-76
2023/04/19 04:33:25;;;;;;;6.55;2.63;;;9.10;99.90;;;;;;5096111;28;20028;-76
2023/04/19 04:35:52;;;;;;;5.47;2.85;;;10.80;99.90;;;;;;5077386;28;20012;-76
2023/04/19 04:38:18;;;;;;;5.25;2.33;;;9.00;99.90;;;;;;5077248;28;20035;-76
2023/04/19 04:40:54;;;;;;;6.40;2.67;;;9.10;99.90;;;;;;5095570;28;20030;-76
2023/04/19 04:43:21;;;;;;;8.15;2.75;;;8.90;99.90;;;;;;5077582;28;20078;-77
2023/04/19 04:45:47;;;;;;;6.05;2.65;;;8.90;99.90;;;;;;5095198;28;20028;-76
2023/04/19 04:48:13;;;;;;;6.45;2.55;;;8.90;99.90;;;;;;5095755;28;20026;-76
2023/04/19 04:50:39;;;;;;;6.38;2.60;;;8.80;99.90;;;;;;5095534;28;20077;-76
2023/04/19 04:53:04;;;;;;;5.60;2.30;;;9.00;99.90;;;;;;5095694;28;20383;-76
2023/04/19 04:55:30;;;;;;;9.23;2.70;;;8.80;99.90;;;;;;5077517;28;20036;-77
2023/04/19 04:57:55;;;;;;;5.90;2.30;;;8.70;99.90;;;;;;5095764;28;20024;-77
2023/04/19 05:00:22;;;;;;;4.72;2.60;;;8.70;99.90;;;;;;5095491;28;20394;-78
2023/04/19 05:02:47;;;;;;;5.28;2.72;;;8.70;99.90;;;;;;5077437;28;20020;-77
2023/04/19 05:05:13;;;;;;;10.55;2.78;;;8.70;99.90;;;;;;5076593;28;20019;-77
2023/04/19 05:07:38;;;;;;;7.53;2.58;;;9.80;99.90;;;;;;5077812;28;20505;-77
2023/04/19 05:10:05;;;;;;;3.80;1.90;;;8.60;99.90;;;;;;5094601;28;20020;-77
2023/04/19 05:12:30;;;;;;;6.25;2.80;;;8.60;99.90;;;;;;5095331;28;20032;-76
2023/04/19 05:14:56;;;;;;;4.65;2.20;;;8.60;99.90;;;;;;5095551;28;20028;-76
2023/04/19 05:17:21;;;;;;;5.85;2.85;;;8.90;99.90;;;;;;5095184;28;20031;-76
2023/04/19 05:19:47;;;;;;;10.07;3.30;;;8.60;99.90;;;;;;5095165;28;20395;-76
2023/04/19 05:22:13;;;;;;;7.10;2.80;;;8.70;99.90;;;;;;5095412;28;20020;-77
2023/04/19 05:24:39;;;;;;;6.78;2.67;;;8.70;99.90;;;;;;5095510;28;20055;-76
2023/04/19 05:27:05;;;;;;;4.72;2.58;;;8.60;99.90;;;;;;5077127;28;20020;-77
2023/04/19 05:29:34;;;;;;;5.60;2.88;;;8.60;99.90;;;;;;5096105;28;20036;-77
2023/04/19 05:32:00;;;;;;;8.65;3.40;;;;;;;;;;5077353;28;20024;-77
2023/04/19 05:34:25;;;;;;;6.88;3.58;;;8.70;99.90;;;;;;5094097;28;20399;-77
2023/04/19 05:36:51;;;;;;;5.97;2.50;;;8.70;99.90;;;;;;5076197;28;20031;-76
2023/04/19 05:39:17;;;;;;;7.63;2.70;;;8.70;99.90;;;;;;5076073;28;20032;-77
2023/04/19 05:41:42;;;;;;;6.15;2.08;;;8.70;99.90;;;;;;5075606;28;20020;-77
2023/04/19 05:44:08;;;;;;;7.82;2.67;;;8.70;99.90;;;;;;5075465;28;20054;-77
2023/04/19 05:46:34;;;;;;;6.25;2.38;;;8.80;99.90;;;;;;5093330;28;20029;-78
2023/04/19 05:49:03;;;;;;;8.00;2.95;;;8.80;99.90;;;;;;5093580;28;20069;-77
2023/04/19 05:51:29;;;;;;;5.88;2.13;;;8.80;99.90;;;;;;5076327;28;20046;-76
2023/04/19 05:53:59;;;;;;;6.00;2.80;;;8.80;99.90;;;;;;5093567;28;20483;-76
2023/04/19 05:56:25;;;;;;;4.75;3.05;;;8.80;99.90;;;;;;5074787;28;20016;-77
2023/04/19 05:58:50;;;;;;;7.10;2.90;;;8.90;99.90;;;;;;5093401;28;20061;-77
2023/04/19 06:01:16;;;;;;;6.90;2.88;;;8.90;99.90;;;;;;5075056;28;20051;-76
2023/04/19 06:03:41;;;;;;;6.88;2.60;;;8.90;99.90;;;;;;5092852;28;20035;-76
2023/04/19 06:06:07;;;;;;;7.32;2.55;;;9.00;99.90;;;;;;5093901;28;20451;-76
2023/04/19 06:08:32;;;;;;;6.90;2.88;;;9.00;99.90;;;;;;5092937;28;20521;-77
2023/04/19 06:10:59;;;;;;;7.13;2.88;;;9.00;99.90;;;;;;5093178;28;20029;-77
2023/04/19 06:13:24;;;;;;;7.70;3.50;;;9.00;99.90;;;;;;5092660;28;20032;-76
2023/04/19 06:15:50;;;;;;;7.60;3.05;;;9.00;99.90;;;;;;5092341;28;20027;-76
2023/04/19 06:18:16;;;;;;;5.38;2.63;;;9.20;99.90;;;;;;5076484;28;20035;-75
2023/04/19 06:20:41;;;;;;;6.70;2.60;;;9.20;99.90;;;;;;5096527;28;20091;-76
2023/04/19 06:23:07;;;;;;;6.43;2.05;;;9.20;99.90;;;;;;5078589;28;20035;-77
2023/04/19 06:25:32;;;;;;;8.65;2.60;;;9.30;99.90;;;;;;5095447;28;20138;-76
2023/04/19 06:27:59;;;;;;;5.68;2.55;;;9.40;99.90;;;;;;5096543;28;20031;-76
2023/04/19 06:30:25;;;;;;;2.35;1.63;;;9.40;99.90;;;;;;5078736;28;20016;-76
2023/04/19 06:32:50;;;;;;;9.50;3.13;;;9.60;99.90;;;;;;5078377;28;20028;-76
2023/04/19 06:35:16;;;;;;;4.32;2.20;;;9.60;99.90;;;;;;5096750;28;20082;-76
2023/04/19 06:37:41;;;;;;;5.18;2.60;;;9.70;99.90;;;;;;5078270;28;20115;-76
2023/04/19 06:40:08;;;;;;;6.65;2.88;;;9.70;99.90;;;;;;5096529;28;20032;-76
2023/04/19 06:42:36;;;;;;;4.45;1.98;;;9.90;99.90;;;;;;5097029;28;20023;-76
2023/04/19 06:45:03;;;;;;;4.60;2.00;;;9.80;99.90;;;;;;5095884;28;20542;-76
2023/04/19 06:47:31;;;;;;;5.10;2.30;;;10.00;99.90;;;;;;5078160;28;20051;-76
2023/04/19 06:49:57;;;;;;;5.57;2.47;;;10.00;99.90;;;;;;5096612;28;20020;-76
2023/04/19 06:52:22;;;;;;;5.88;2.83;;;10.00;99.90;;;;;;5096438;28;20046;-76
2023/04/19 06:54:49;;;;;;;5.15;1.90;;;10.10;99.90;;;;;;5077748;28;20483;-76
2023/04/19 06:57:16;;;;;;;8.82;2.67;;;10.10;99.90;;;;;;5096322;28;20024;-76
2023/04/19 06:59:42;;;;;;;5.55;1.75;;;;;;;;;;5078219;28;20012;-76
2023/04/19 07:02:08;;;;;;;3.28;1.65;;;10.20;99.90;;;;;;5096879;28;20020;-76
2023/04/19 07:04:35;;;;;;;4.85;1.35;;;;;;;;;;5077822;28;20165;-76
2023/04/19 07:07:00;;;;;;;4.30;1.20;;;10.50;99.90;;;;;;5096258;28;20035;-76
2023/04/19 07:09:26;;;;;;;5.75;1.00;;;10.50;99.90;;;;;;5077877;28;20479;-76
2023/04/19 07:11:56;;;;;;;1.75;0.85;;;10.70;99.90;;;;;;5096485;28;20467;-76
2023/04/19 07:14:24;;;;;;;2.78;1.63;;;10.80;99.90;;;;;;5096063;28;20506;-76
2023/04/19 07:16:52;;;;;;;3.00;1.43;;;;;;;;;;5057642;28;20112;-76
2023/04/19 07:19:19;;;;;;;3.67;0.73;;;11.00;99.90;;;;;;5075785;28;20494;-76
2023/04/19 07:21:47;;;;;;;3.67;0.90;;;11.10;99.90;;;;;;5075593;28;20467;-75
2023/04/19 07:24:15;;;;;;;4.23;1.27;;;11.30;99.90;;;;;;5076080;28;20070;-75
2023/04/19 07:26:41;;;;;;;1.08;0.30;;;11.40;98.30;;;;;;5075919;28;20065;-76
2023/04/19 07:29:06;;;;;;;4.15;1.13;;;11.40;98.00;;;;;;5094957;28;20024;-76
2023/04/19 07:31:32;;;;;;;2.50;0.45;;;11.50;96.30;;;;;;5095731;28;20045;-75
2023/04/19 07:34:01;;;;;;;8.27;0.60;;;11.50;96.40;;;;;;5096096;28;20368;-76
2023/04/19 07:36:29;;;;;;;2.60;0.38;;;11.70;94.10;;;;;;5095209;28;20016;-76
2023/04/19 07:38:55;;;;;;;3.35;0.40;;;11.60;94.40;;;;;;5095768;28;20382;-76
2023/04/19 07:41:22;;;;;;;3.20;0.80;;;11.70;93.00;;;;;;5095505;28;20020;-76
2023/04/19 07:43:50;;;;;;;5.80;0.55;;;11.70;92.40;;;;;;5095938;28;20032;-76
2023/04/19 07:46:16;;;;;;;4.43;0.80;;;11.80;93.20;;;;;;5094633;28;20020;-76
2023/04/19 07:48:45;;;;;;;1.15;0.20;;;11.80;92.40;;;;;;5095279;28;20035;-75
2023/04/19 07:51:12;;;;;;;1.52;0.30;;;11.80;92.60;;;;;;5095236;28;20101;-75
2023/04/19 07:53:45;;;;;;;1.48;0.32;;;11.80;91.80;;;;;;5077186;28;20028;-76
2023/04/19 07:56:11;;;;;;;2.10;0.45;;;11.90;91.10;;;;;;5076921;28;20054;-76
2023/04/19 07:58:38;;;;;;;3.15;0.95;;;12.00;91.50;;;;;;5076857;28;20024;-76
2023/04/19 08:01:04;;;;;;;4.57;1.10;;;12.00;91.60;;;;;;5077075;28;20065;-76
2023/04/19 08:03:30;;;;;;;2.42;0.47;;;12.20;90.10;;;;;;5076768;28;20152;-76
2023/04/19 08:06:08;;;;;;;3.97;0.20;;;12.20;90.40;;;;;;5076659;28;20133;-76
2023/04/19 08:08:37;;;;;;;1.27;0.47;;;12.20;90.40;;;;;;5076682;28;20051;-75
2023/04/19 08:11:03;;;;;;;1.27;0.28;;;12.20;89.10;;;;;;5076689;28;20020;-76
2023/04/19 08:13:29;;;;;;;5.28;0.20;;;12.20;86.60;;;;;;5094563;28;20032;-76
2023/04/19 08:15:55;;;;;;;0.85;0.43;;;12.30;86.70;;;;;;5076637;28;20034;-76
2023/04/19 08:18:21;;;;;;;0.95;0.30;;;12.40;87.40;;;;;;5076827;28;20060;-76
2023/04/19 08:20:50;;;;;;;0.93;0.10;;;12.40;85.40;;;;;;5076605;28;20107;-76
2023/04/19 08:23:16;;;;;;;2.78;0.30;;;;;;;;;;5076539;28;20024;-76
2023/04/19 08:25:42;;;;;;;1.30;0.10;;;12.50;82.60;;;;;;5094481;28;20021;-77
2023/04/19 08:28:07;;;;;;;2.13;0.10;;;12.50;82.20;;;;;;5094511;28;20169;-74
2023/04/19 08:30:33;;;;;;;2.00;0.22;;;12.60;84.30;;;;;;5094490;28;20039;-75
2023/04/19 08:33:01;;;;;;;1.10;0.10;;;12.60;81.10;;;;;;5094072;28;20479;-75
2023/04/19 08:35:30;;;;;;;1.30;0.20;;;12.60;80.30;;;;;;5094934;28;20028;-75
2023/04/19 08:37:55;;;;;;;4.53;0.93;;;12.70;81.50;;;;;;5076100;28;20020;-76
2023/04/19 08:40:21;;;;;;;1.33;0.25;;;12.80;81.10;;;;;;5075042;28;20139;-75
2023/04/19 08:42:47;;;;;;;3.25;0.28;;;12.80;81.70;;;;;;5075752;28;20030;-75
2023/04/19 08:45:15;;;;;;;3.10;0.20;;;13.00;77.30;;;;;;5094544;28;20442;-77
2023/04/19 08:47:41;;;;;;;2.97;0.30;;;13.10;76.50;;;;;;5094016;28;20028;-74
2023/04/19 08:50:07;;;;;;;0.52;0.20;;;13.20;78.10;;;;;;5094147;28;20024;-75
2023/04/19 08:52:35;;;;;;;1.13;0.10;;;13.20;78.30;;;;;;5093931;28;20032;-74
2023/04/19 08:55:06;;;;;;;1.30;0.15;;;13.40;76.70;;;;;;5094043;28;20379;-75
2023/04/19 08:57:33;;;;;;;1.95;0.10;;;13.40;73.40;;;;;;5094075;28;20034;-75
2023/04/19 09:00:00;;;;;;;7.97;0.85;;;13.40;75.10;;;;;;5094092;28;20020;-75
2023/04/19 09:02:26;;;;;;;1.98;0.05;;;13.50;74.40;;;;;;5093862;28;20020;-75
2023/04/19 09:04:52;;;;;;;0.73;0.25;;;13.40;74.30;;;;;;5075652;28;20020;-75
2023/04/19 09:07:27;;;;;;;1.55;0.20;;;13.50;75.90;;;;;;5075840;28;20020;-75
2023/04/19 09:10:19;;;;;;;2.15;0.20;;;13.50;73.60;;;;;;5094162;28;20487;-75
2023/04/19 09:13:06;;;;;;;1.27;0.20;;;13.60;73.70;;;;;;5094184;28;20024;-75
2023/04/19 09:15:37;;;;;;;1.25;0.10;;;13.80;72.40;;;;;;5094076;28;20020;-76
2023/04/19 09:18:08;;;;;;;1.55;0.10;;;13.80;71.80;;;;;;5075628;28;20020;-75
2023/04/19 09:20:40;;;;;;;0.30;0.00;;;13.80;71.60;;;;;;5075649;28;20024;-75
2023/04/19 09:23:08;;;;;;;0.10;0.00;;;13.80;72.40;;;;;;5093355;28;20088;-75
2023/04/19 09:25:38;;;;;;;0.98;0.10;;;13.80;68.10;;;;;;5094117;28;20016;-75
2023/04/19 09:28:11;;;;;;;1.75;0.00;;;13.80;67.30;;;;;;5094392;28;20103;-75
2023/04/19 09:30:40;;;;;;;2.00;0.00;;;13.70;66.60;;;;;;5094316;28;20020;-75
2023/04/19 09:33:06;;;;;;;;;;;13.90;66.80;;;;;;5075731;28;20056;-76
2023/04/19 09:35:48;;;;;;;0.30;0.00;;;13.90;66.40;;;;;;5092457;28;19911;-76
2023/04/19 09:38:15;;;;;;;0.00;0.00;;;14.00;65.70;;;;;;5075492;28;20027;-76
2023/04/19 09:40:41;;;;;;;0.00;0.00;;;14.70;67.00;;;;;;5093909;28;20020;-75
2023/04/19 09:43:07;;;;;;;0.45;0.00;;;14.10;66.40;;;;;;5075143;28;20024;-75
2023/04/19 09:45:41;;;;;;;2.75;0.00;;;14.70;65.70;;;;;;5093661;28;20020;-76
2023/04/19 09:48:07;;;;;;;2.17;0.00;;;13.90;63.70;;;;;;5093663;28;20024;-76
2023/04/19 09:50:35;;;;;;;2.63;0.00;;;14.00;64.00;;;;;;5093167;28;20028;-75
2023/04/19 09:53:02;;;;;;;0.20;0.00;;;14.10;62.80;;;;;;5093149;28;20039;-76
2023/04/19 09:55:28;;;;;;;0.20;0.00;;;14.10;63.60;;;;;;5092887;28;20043;-76
2023/04/19 09:57:53;;;;;;;0.85;0.00;;;14.10;63.00;;;;;;5093278;28;20111;-76
2023/04/19 10:00:22;;;;;;;0.30;0.00;;;14.10;61.00;;;;;;5093429;28;20024;-75
2023/04/19 10:02:54;;;;;;;;;;;14.10;62.20;;;;;;5093499;28;20028;-75
2023/04/19 10:05:21;;;;;;;0.20;0.00;;;14.00;62.40;;;;;;5093162;28;19907;-75
2023/04/19 10:07:48;;;;;;;1.45;0.00;;;14.10;61.60;;;;;;5093463;28;20035;-74
2023/04/19 10:10:16;;;;;;;1.15;0.28;;;14.20;61.80;;;;;;5093140;28;20028;-74
2023/04/19 10:12:50;;;;;;;7.35;1.42;;;14.30;61.00;;;;;;5092957;28;20077;-75
2023/04/19 10:15:22;;;;;;;1.05;0.10;;;14.40;61.80;;;;;;5093415;28;20475;-74
2023/04/19 10:17:48;;;;;;;2.05;0.10;;;14.50;61.40;;;;;;5093037;28;20458;-75
2023/04/19 10:20:22;;;;;;;1.45;0.15;;;14.60;60.70;;;;;;5075076;28;20052;-75
2023/04/19 10:22:48;;;;;;;0.32;0.05;;;14.50;61.10;;;;;;5093202;28;20024;-75
2023/04/19 10:25:15;;;;;;;0.85;0.00;;;14.70;61.50;;;;;;5093253;28;20495;-75
2023/04/19 10:27:50;;;;;;;0.52;0.00;;;;;;;;;;5093354;28;20047;-75
2023/04/19 10:30:17;;;;;;;1.02;0.10;;;14.70;61.40;;;;;;5093094;28;20024;-75
2023/04/19 10:32:45;;;;;;;2.95;0.00;;;14.80;62.10;;;;;;5074407;28;20026;-75
2023/04/19 10:35:25;;;;;;;1.40;0.00;;;15.00;61.50;;;;;;5093215;28;20036;-75
2023/04/19 10:38:06;;;;;;;1.15;0.00;;;15.30;60.10;;;;;;5074957;28;20024;-74
2023/04/19 10:40:53;;;;;;;0.13;0.00;;;15.20;59.90;;;;;;5093763;28;20031;-75
2023/04/19 10:43:20;;;;;;;0.70;0.00;;;15.50;60.10;;;;;;5092963;28;20036;-75
2023/04/19 10:45:48;;;;;;;0.40;0.00;;;15.60;57.30;;;;;;5092995;28;20020;-75
2023/04/19 10:48:29;;;;;;;0.52;0.13;;;15.50;56.70;;;;;;5092400;28;20085;-75
2023/04/19 10:51:02;;;;;;;2.15;0.00;;;15.40;57.50;;;;;;5092744;28;20031;-75
2023/04/19 10:53:53;;;;;;;2.08;0.10;;;15.40;57.80;;;;;;5074535;28;20047;-75
2023/04/19 10:56:32;;;;;;;1.17;0.00;;;15.70;58.30;;;;;;5074333;28;20077;-75
2023/04/19 10:59:01;;;;;;;1.48;0.25;;;15.70;58.80;;;;;;5092928;28;20042;-75
2023/04/19 11:01:39;;;;;;;0.38;0.00;;;15.90;56.70;;;;;;5074231;28;20462;-76
2023/04/19 11:04:06;;;;;;;0.00;0.00;;;15.90;58.00;;;;;;5076852;28;20028;-74
2023/04/19 11:06:33;;;;;;;0.10;0.00;;;16.10;55.40;;;;;;5096041;28;20553;-74
2023/04/19 11:08:59;;;;;;;0.85;0.00;;;16.10;53.30;;;;;;5096273;28;20016;-75
2023/04/19 11:11:25;;;;;;;0.77;0.00;;;16.20;54.50;;;;;;5078200;28;20410;-75
2023/04/19 11:13:54;;;;;;;0.10;0.00;;;16.30;52.30;;;;;;5078310;28;20024;-75
2023/04/19 11:16:20;;;;;;;0.40;0.10;;;16.40;55.00;;;;;;5096001;28;20121;-75
2023/04/19 11:18:45;;;;;;;1.20;0.03;;;16.40;52.20;;;;;;5095568;28;20066;-74
2023/04/19 11:21:16;;;;;;;6.43;0.08;;;16.60;53.20;;;;;;5095930;28;20076;-75
2023/04/19 11:23:48;;;;;;;0.55;0.00;;;16.70;53.80;;;;;;5096727;28;20021;-76
2023/04/19 11:26:13;;;;;;;0.63;0.10;;;16.70;52.10;;;;;;5096037;28;20051;-74
2023/04/19 11:28:39;;;;;;;0.52;0.00;;;16.70;52.80;;;;;;5095940;28;20100;-75
2023/04/19 11:31:05;;;;;;;0.10;0.00;;;16.90;49.00;;;;;;5078133;28;20089;-74
2023/04/19 11:33:36;;;;;;;0.38;0.00;;;16.80;49.30;;;;;;5095964;28;20032;-74
2023/04/19 11:36:02;;;;;;;0.15;0.00;;;16.90;49.80;;;;;;5096072;28;20450;-74
2023/04/19 11:38:29;;;;;;;2.22;0.32;;;16.80;50.30;;;;;;5095324;28;20023;-75
2023/04/19 11:41:03;;;;;;;0.63;0.20;;;16.90;49.50;;;;;;5077835;28;20028;-75
2023/04/19 11:43:35;;;;;;;0.45;0.00;;;17.10;49.40;;;;;;5095792;28;20495;-74
2023/04/19 11:46:08;;;;;;;4.07;0.10;;;17.40;50.20;;;;;;5076998;28;20020;-75
2023/04/19 11:48:34;;;;;;;0.40;0.00;;;17.50;48.80;;;;;;5095193;28;20028;-74
2023/04/19 11:51:00;;;;;;;0.65;0.00;;;17.50;49.00;;;;;;5076827;28;20039;-75
2023/04/19 11:53:27;;;;;;;1.17;0.05;;;17.90;49.80;;;;;;5095630;28;20028;-75
2023/04/19 11:56:06;;;;;;;2.10;0.00;;;18.00;47.70;;;;;;5077455;28;20028;-74
2023/04/19 11:58:42;;;;;;;6.60;0.08;;;18.00;46.60;;;;;;5095359;28;20024;-77
2023/04/19 12:01:13;;;;;;;2.15;0.32;;;18.10;46.60;;;;;;5095423;28;20020;-76
2023/04/19 12:03:46;;;;;;;0.85;0.15;;;18.20;46.90;;;;;;5095245;28;20016;-77
2023/04/19 12:06:23;;;;;;;1.83;0.00;;;18.70;46.00;;;;;;5095394;28;20024;-76
2023/04/19 12:08:50;;;;;;;1.00;0.20;;;18.60;45.60;;;;;;5095045;28;20052;-75
2023/04/19 12:11:22;;;;;;;0.10;0.00;;;18.80;44.80;;;;;;5094799;28;20092;-75
2023/04/19 12:14:26;;;;;;;0.93;0.10;;;18.90;43.40;;;;;;5072860;28;20032;-75
2023/04/19 12:17:14;;;;;;;2.78;0.20;;;19.10;43.60;;;;;;4993527;28;20138;-75
2023/04/19 12:19:48;;;;;;;1.23;0.10;;;19.20;43.30;;;;;;4977373;28;20077;-75
2023/04/19 12:22:19;;;;;;;1.48;0.00;;;19.20;42.60;;;;;;5044885;28;20062;-75
2023/04/19 12:24:45;;;;;;;0.68;0.10;;;19.40;41.70;;;;;;5095102;28;20047;-75
2023/04/19 12:27:10;;;;;;;0.63;0.05;;;19.30;40.90;;;;;;5076668;28;20051;-75
2023/04/19 12:29:37;;;;;;;0.80;0.10;;;19.50;42.20;;;;;;5094413;28;20043;-75
2023/04/19 12:32:03;;;;;;;1.17;0.13;;;19.20;41.60;;;;;;5094701;28;20024;-75
2023/04/19 12:34:29;;;;;;;4.43;0.10;;;19.40;41.90;;;;;;5094771;28;20032;-75
2023/04/19 12:36:58;;;;;;;2.70;0.20;;;19.60;42.00;;;;;;5094558;28;20387;-75
2023/04/19 12:39:27;;;;;;;1.13;0.10;;;19.60;40.00;;;;;;5076178;28;20020;-75
2023/04/19 12:41:55;;;;;;;1.00;0.10;;;19.70;41.40;;;;;;5094457;28;20101;-75
2023/04/19 12:44:23;;;;;;;0.88;0.00;;;19.90;40.80;;;;;;5094624;28;20034;-75
2023/04/19 12:46:49;;;;;;;1.13;0.10;;;19.90;41.40;;;;;;5076493;28;20020;-75
2023/04/19 12:49:20;;;;;;;2.17;0.10;;;20.00;41.30;;;;;;5094590;28;20108;-75
2023/04/19 12:51:49;;;;;;;0.73;0.10;;;20.50;41.20;;;;;;5076188;28;20032;-76
2023/04/19 12:54:15;;;;;;;2.00;0.05;;;20.00;42.40;;;;;;5076316;28;20027;-75
2023/04/19 12:56:40;;;;;;;1.52;0.13;;;19.80;40.00;;;;;;5094109;28;20020;-75